Time;durP1;ratioP1;P1;durP2;ratioP2;P2;SDS_P1;SDS_P2;PMS_P1;PMS_P2;Temp;Humidity;BMP_temperature;BMP_pressure;BME280_temperature;BME280_humidity;BME280_pressure;Samples;Min_cycle;Max_cycle;Signal;HPM_P1;HPM_P2
2023/08/25 00:00:09;;;;;;;11.47;9.40;;;18.90;99.90;;;;;;5063611;28;20190;-74
2023/08/25 00:02:34;;;;;;;11.10;8.80;;;18.90;99.90;;;;;;5056535;28;20529;-73
2023/08/25 00:05:00;;;;;;;13.73;8.80;;;18.90;99.90;;;;;;5063054;28;20201;-73
2023/08/25 00:07:25;;;;;;;10.57;8.63;;;18.90;99.90;;;;;;5074446;28;20174;-74
2023/08/25 00:09:51;;;;;;;13.73;7.83;;;18.90;99.90;;;;;;5074076;28;20170;-73
2023/08/25 00:12:17;;;;;;;12.47;8.90;;;18.90;99.90;;;;;;5073688;28;20196;-73
2023/08/25 00:14:42;;;;;;;9.67;8.43;;;18.80;99.90;;;;;;5073585;28;20240;-73
2023/08/25 00:17:08;;;;;;;11.13;7.73;;;18.90;99.90;;;;;;5074191;28;20519;-74
2023/08/25 00:19:34;;;;;;;10.63;8.10;;;18.90;99.90;;;;;;5074102;28;20186;-73
2023/08/25 00:22:00;;;;;;;10.77;8.03;;;18.90;99.90;;;;;;5065901;28;20183;-73
2023/08/25 00:24:25;;;;;;;9.43;8.00;;;18.90;99.90;;;;;;5057291;28;20221;-73
2023/08/25 00:26:51;;;;;;;7.83;7.03;;;18.90;99.90;;;;;;5054181;28;20805;-73
2023/08/25 00:29:18;;;;;;;11.87;8.03;;;18.80;99.90;;;;;;5052895;28;20270;-73
2023/08/25 00:31:44;;;;;;;9.47;8.27;;;18.90;99.90;;;;;;5053943;28;20258;-73
2023/08/25 00:34:10;;;;;;;10.20;8.50;;;18.80;99.90;;;;;;5053990;28;20230;-73
2023/08/25 00:36:35;;;;;;;10.77;8.20;;;18.90;99.90;;;;;;5052492;28;20217;-73
2023/08/25 00:39:01;;;;;;;10.97;8.20;;;18.80;99.90;;;;;;5054989;28;20179;-73
2023/08/25 00:41:26;;;;;;;12.70;8.80;;;18.90;99.90;;;;;;5053321;28;20228;-73
2023/08/25 00:43:52;;;;;;;12.17;8.67;;;18.80;99.90;;;;;;5057407;28;20193;-73
2023/08/25 00:46:19;;;;;;;17.20;9.13;;;18.80;99.90;;;;;;5073341;28;20698;-74
2023/08/25 00:48:45;;;;;;;14.13;9.30;;;18.80;99.90;;;;;;5067777;28;20194;-74
2023/08/25 00:51:10;;;;;;;14.03;9.13;;;18.80;99.90;;;;;;5054740;28;20175;-73
2023/08/25 00:53:38;;;;;;;10.30;8.90;;;18.80;99.90;;;;;;5053344;28;20179;-73
2023/08/25 00:56:04;;;;;;;10.37;9.13;;;18.80;99.90;;;;;;5071364;28;20177;-73
2023/08/25 00:58:30;;;;;;;14.50;8.63;;;18.80;99.90;;;;;;5073117;28;20200;-73
2023/08/25 01:00:57;;;;;;;12.63;9.03;;;18.80;99.90;;;;;;5073331;28;20185;-73
2023/08/25 01:03:23;;;;;;;12.70;8.27;;;18.80;99.90;;;;;;5072346;28;20173;-73
2023/08/25 01:05:48;;;;;;;14.20;8.80;;;18.80;99.90;;;;;;5066844;28;20202;-73
2023/08/25 01:08:16;;;;;;;10.97;8.13;;;18.80;99.90;;;;;;5072755;28;20198;-73
2023/08/25 01:10:57;;;;;;;13.40;9.13;;;18.80;99.90;;;;;;5072930;28;20228;-73
2023/08/25 01:13:54;;;;;;;10.30;8.43;;;18.80;99.90;;;;;;5072410;28;20166;-73
2023/08/25 01:16:25;;;;;;;10.30;8.53;;;18.80;99.90;;;;;;5073051;28;20174;-73
2023/08/25 01:18:52;;;;;;;11.33;8.23;;;18.70;99.90;;;;;;5059445;28;20182;-73
2023/08/25 01:21:18;;;;;;;15.07;8.17;;;18.70;99.90;;;;;;5053952;28;20183;-74
2023/08/25 01:24:21;;;;;;;13.73;8.83;;;18.70;99.90;;;;;;5052812;28;20668;-73
2023/08/25 01:26:48;;;;;;;10.73;8.90;;;18.70;99.90;;;;;;5010634;28;20538;-73
2023/08/25 01:29:14;;;;;;;10.50;8.90;;;18.60;99.90;;;;;;5045289;28;20183;-73
2023/08/25 01:31:40;;;;;;;11.67;8.93;;;18.60;99.90;;;;;;5052771;28;20171;-73
2023/08/25 01:34:06;;;;;;;14.27;8.87;;;18.60;99.90;;;;;;5059012;28;20190;-73
2023/08/25 01:36:54;;;;;;;11.33;8.40;;;18.60;99.90;;;;;;5072734;28;20181;-73
2023/08/25 01:39:21;;;;;;;12.93;8.37;;;18.60;99.90;;;;;;5067453;28;20178;-73
2023/08/25 01:41:56;;;;;;;13.80;8.50;;;18.60;99.90;;;;;;5051407;28;20632;-73
2023/08/25 01:44:25;;;;;;;12.97;8.30;;;18.50;99.90;;;;;;5052527;28;20194;-74
2023/08/25 01:46:54;;;;;;;9.07;8.03;;;18.60;99.90;;;;;;5070812;28;20197;-73
2023/08/25 01:49:21;;;;;;;10.53;8.10;;;18.50;99.90;;;;;;5062439;28;20182;-74
2023/08/25 01:51:48;;;;;;;10.70;7.97;;;18.50;99.90;;;;;;5052456;28;20171;-73
2023/08/25 01:54:13;;;;;;;11.57;8.27;;;18.50;99.90;;;;;;5052004;28;20281;-73
2023/08/25 01:56:39;;;;;;;13.03;8.10;;;18.50;99.90;;;;;;5052502;28;20261;-73
2023/08/25 01:59:04;;;;;;;10.97;8.60;;;18.50;99.90;;;;;;5052339;28;20237;-73
2023/08/25 02:01:30;;;;;;;10.37;8.60;;;18.50;99.90;;;;;;5051974;28;20189;-73
2023/08/25 02:03:57;;;;;;;12.10;9.20;;;18.40;99.90;;;;;;5051774;28;20288;-73
2023/08/25 02:06:22;;;;;;;14.87;8.30;;;18.40;99.90;;;;;;5068196;28;20216;-73
2023/08/25 02:08:48;;;;;;;10.27;8.50;;;18.40;99.90;;;;;;5071855;28;20178;-73
2023/08/25 02:11:14;;;;;;;10.67;8.70;;;18.40;99.90;;;;;;5071896;28;20171;-73
2023/08/25 02:13:40;;;;;;;13.47;9.57;;;18.40;99.90;;;;;;5057502;28;20182;-73
2023/08/25 02:16:06;;;;;;;17.57;10.67;;;18.40;99.90;;;;;;5052104;28;20181;-73
2023/08/25 02:18:31;;;;;;;17.13;9.87;;;18.40;99.90;;;;;;5051888;28;20189;-73
2023/08/25 02:20:57;;;;;;;15.87;9.47;;;18.40;99.90;;;;;;5053142;28;20178;-73
2023/08/25 02:23:23;;;;;;;13.10;9.93;;;18.40;99.90;;;;;;5051650;28;20266;-73
2023/08/25 02:25:48;;;;;;;13.10;10.60;;;18.40;99.90;;;;;;5051908;28;20260;-73
2023/08/25 02:28:14;;;;;;;16.23;11.13;;;18.40;99.90;;;;;;5051772;28;20254;-73
2023/08/25 02:30:40;;;;;;;16.47;10.67;;;18.40;99.90;;;;;;5070533;28;20174;-73
2023/08/25 02:33:06;;;;;;;16.00;10.87;;;18.30;99.90;;;;;;5071516;28;20166;-73
2023/08/25 02:35:33;;;;;;;14.30;11.43;;;18.30;99.90;;;;;;5070929;28;20235;-73
2023/08/25 02:38:06;;;;;;;20.87;12.00;;;18.20;99.90;;;;;;5071832;28;20589;-73
2023/08/25 02:40:33;;;;;;;24.00;11.90;;;18.20;99.90;;;;;;5059203;28;20659;-73
2023/08/25 02:43:00;;;;;;;17.83;12.50;;;18.20;99.90;;;;;;5051586;28;20240;-73
2023/08/25 02:45:27;;;;;;;18.47;13.40;;;18.20;99.90;;;;;;5051428;28;20214;-73
2023/08/25 02:47:53;;;;;;;17.27;12.30;;;18.20;99.90;;;;;;5051770;28;20189;-74
2023/08/25 02:50:20;;;;;;;15.17;12.17;;;18.20;99.90;;;;;;5051500;28;20655;-73
2023/08/25 02:52:45;;;;;;;13.77;11.57;;;18.20;99.90;;;;;;5051201;28;20167;-73
2023/08/25 02:55:15;;;;;;;16.77;11.43;;;18.20;99.90;;;;;;5052577;28;20702;-73
2023/08/25 02:57:42;;;;;;;14.43;12.57;;;18.20;99.90;;;;;;5051830;28;20200;-73
2023/08/25 03:00:13;;;;;;;15.70;11.93;;;18.20;99.90;;;;;;5050741;28;20211;-73
2023/08/25 03:02:39;;;;;;;15.37;11.13;;;18.20;99.90;;;;;;5051309;28;20175;-74
2023/08/25 03:05:05;;;;;;;17.13;11.63;;;18.20;99.90;;;;;;5053651;28;20202;-74
2023/08/25 03:07:32;;;;;;;15.63;10.60;;;18.20;99.90;;;;;;5062816;28;20649;-74
2023/08/25 03:09:58;;;;;;;14.40;10.30;;;18.20;99.90;;;;;;5051458;28;20568;-74
2023/08/25 03:12:24;;;;;;;13.10;9.90;;;18.20;99.90;;;;;;5051036;28;20178;-75
2023/08/25 03:14:50;;;;;;;12.80;9.43;;;18.20;99.90;;;;;;5049965;28;20257;-74
2023/08/25 03:17:17;;;;;;;11.73;9.57;;;18.20;99.90;;;;;;5051206;28;20254;-74
2023/08/25 03:19:42;;;;;;;14.67;9.93;;;18.20;99.90;;;;;;5069784;28;20187;-74
2023/08/25 03:22:08;;;;;;;13.23;9.77;;;18.20;99.90;;;;;;5070980;28;20185;-74
2023/08/25 03:24:33;;;;;;;11.50;9.17;;;18.20;99.90;;;;;;5060169;28;20285;-74
2023/08/25 03:26:59;;;;;;;13.53;9.73;;;18.20;99.90;;;;;;5051253;28;20167;-74
2023/08/25 03:29:25;;;;;;;17.20;9.63;;;18.10;99.90;;;;;;5053310;28;20205;-74
2023/08/25 03:31:51;;;;;;;13.30;9.70;;;18.10;99.90;;;;;;5064504;28;20667;-75
2023/08/25 03:34:17;;;;;;;16.33;10.53;;;18.10;99.90;;;;;;5053526;28;20218;-74
2023/08/25 03:36:42;;;;;;;11.83;10.33;;;18.10;99.90;;;;;;5071252;28;20170;-74
2023/08/25 03:39:09;;;;;;;16.97;10.67;;;18.10;99.90;;;;;;5069529;28;20178;-74
2023/08/25 03:41:35;;;;;;;17.33;10.30;;;18.00;99.90;;;;;;5070984;28;20190;-73
2023/08/25 03:44:01;;;;;;;11.67;10.17;;;18.10;99.90;;;;;;5070758;28;20247;-73
2023/08/25 03:46:26;;;;;;;16.73;10.97;;;18.00;99.90;;;;;;5071107;28;20601;-74
2023/08/25 03:48:52;;;;;;;13.17;10.57;;;18.00;99.90;;;;;;5070697;28;20227;-74
2023/08/25 03:51:18;;;;;;;12.73;10.23;;;18.00;99.90;;;;;;5070632;28;20512;-74
2023/08/25 03:53:43;;;;;;;15.73;10.23;;;18.00;99.90;;;;;;5065896;28;20187;-74
2023/08/25 03:56:09;;;;;;;11.93;9.40;;;18.00;99.90;;;;;;5051124;28;20606;-74
2023/08/25 03:58:34;;;;;;;9.70;8.80;;;18.10;99.90;;;;;;5053505;28;20214;-74
2023/08/25 04:01:00;;;;;;;11.37;9.33;;;18.10;99.90;;;;;;5070767;28;20201;-74
2023/08/25 04:03:26;;;;;;;9.70;8.70;;;18.20;99.90;;;;;;5053461;28;20220;-74
2023/08/25 04:05:51;;;;;;;19.67;9.20;;;18.20;99.90;;;;;;5067047;28;20538;-74
2023/08/25 04:08:17;;;;;;;14.27;9.53;;;18.10;99.90;;;;;;5070154;28;20168;-74
2023/08/25 04:10:43;;;;;;;20.70;9.17;;;18.10;99.90;;;;;;5053071;28;20174;-74
2023/08/25 04:13:09;;;;;;;10.80;8.50;;;18.10;99.90;;;;;;5054346;28;20201;-74
2023/08/25 04:15:38;;;;;;;10.43;8.90;;;18.20;99.90;;;;;;5054413;28;20202;-74
2023/08/25 04:18:05;;;;;;;10.53;8.00;;;18.20;99.90;;;;;;5054446;28;20223;-74
2023/08/25 04:20:33;;;;;;;12.20;9.10;;;18.20;99.90;;;;;;5055592;28;20181;-74
2023/08/25 04:23:02;;;;;;;10.50;8.50;;;18.20;99.90;;;;;;5054021;28;20186;-74
2023/08/25 04:25:29;;;;;;;10.37;8.93;;;18.30;99.90;;;;;;5053940;28;20210;-75
2023/08/25 04:27:55;;;;;;;10.87;9.13;;;18.30;99.90;;;;;;5054355;28;20261;-74
2023/08/25 04:30:22;;;;;;;10.00;8.60;;;18.40;99.90;;;;;;5067984;28;20174;-74
2023/08/25 04:32:52;;;;;;;13.20;9.00;;;18.40;99.90;;;;;;5067952;28;20170;-74
2023/08/25 04:35:17;;;;;;;11.20;8.70;;;18.40;99.90;;;;;;5053832;28;20574;-74
2023/08/25 04:37:47;;;;;;;10.03;8.47;;;18.40;99.90;;;;;;5054053;28;20182;-74
2023/08/25 04:40:13;;;;;;;12.67;7.63;;;18.30;99.90;;;;;;5069010;28;20450;-74
2023/08/25 04:42:39;;;;;;;12.67;8.73;;;18.40;99.90;;;;;;5052066;28;20186;-74
2023/08/25 04:45:05;;;;;;;12.00;9.07;;;18.40;99.90;;;;;;5054013;28;20212;-74
2023/08/25 04:47:30;;;;;;;10.17;8.73;;;18.40;99.90;;;;;;5064203;28;20296;-74
2023/08/25 04:49:57;;;;;;;12.17;9.80;;;18.40;99.90;;;;;;5053760;28;20185;-74
2023/08/25 04:52:23;;;;;;;10.23;9.23;;;18.40;99.90;;;;;;5069355;28;20265;-75
2023/08/25 04:54:49;;;;;;;13.67;10.33;;;18.50;99.90;;;;;;5074255;28;20186;-74
2023/08/25 04:57:15;;;;;;;11.23;9.77;;;18.50;99.90;;;;;;5073685;28;20197;-74
2023/08/25 04:59:40;;;;;;;16.67;10.13;;;18.50;99.90;;;;;;5072989;28;20178;-74
2023/08/25 05:02:06;;;;;;;11.60;9.40;;;18.50;99.90;;;;;;5072798;28;20220;-74
2023/08/25 05:04:32;;;;;;;10.93;8.37;;;18.50;99.90;;;;;;5069071;28;20360;-74
2023/08/25 05:06:57;;;;;;;12.37;9.93;;;18.50;99.90;;;;;;5053261;28;20550;-74
2023/08/25 05:09:23;;;;;;;11.13;9.80;;;18.50;99.90;;;;;;5053336;28;20183;-74
2023/08/25 05:11:48;;;;;;;15.00;9.93;;;18.50;99.90;;;;;;5071761;28;20178;-74
2023/08/25 05:14:14;;;;;;;12.13;10.10;;;18.50;99.90;;;;;;5071874;28;20663;-74
2023/08/25 05:16:40;;;;;;;14.57;10.90;;;18.50;99.90;;;;;;5054517;28;20179;-74
2023/08/25 05:19:06;;;;;;;15.67;10.30;;;18.60;99.90;;;;;;5053550;28;20178;-75
2023/08/25 05:21:31;;;;;;;11.73;10.53;;;18.60;99.90;;;;;;5053692;28;20220;-74
2023/08/25 05:24:20;;;;;;;11.43;9.87;;;18.70;99.90;;;;;;5052528;28;20280;-75
2023/08/25 05:26:55;;;;;;;13.30;10.70;;;18.80;99.90;;;;;;5052986;28;20210;-74
2023/08/25 05:29:23;;;;;;;17.00;11.60;;;18.80;99.90;;;;;;5051872;28;20704;-74
2023/08/25 05:31:50;;;;;;;12.67;10.77;;;18.90;99.90;;;;;;5052740;28;20306;-74
2023/08/25 05:34:16;;;;;;;14.57;11.97;;;18.90;99.90;;;;;;5052781;28;20195;-74
2023/08/25 05:36:42;;;;;;;11.93;10.67;;;18.90;99.90;;;;;;5065663;28;20204;-74
2023/08/25 05:39:07;;;;;;;12.07;10.40;;;19.00;99.90;;;;;;5071457;28;20189;-74
2023/08/25 05:41:33;;;;;;;12.70;10.07;;;19.00;99.90;;;;;;5070912;28;20280;-74
2023/08/25 05:44:00;;;;;;;13.20;10.80;;;19.10;99.90;;;;;;5072921;28;20552;-75
2023/08/25 05:46:26;;;;;;;11.83;10.23;;;19.10;99.90;;;;;;5058785;28;20845;-74
2023/08/25 05:48:52;;;;;;;11.67;9.20;;;19.10;99.90;;;;;;5051348;28;20206;-74
2023/08/25 05:51:17;;;;;;;11.63;9.63;;;19.10;99.90;;;;;;5053433;28;20183;-73
2023/08/25 05:53:44;;;;;;;11.13;9.50;;;19.20;99.90;;;;;;5055139;28;20252;-74
2023/08/25 05:56:10;;;;;;;10.67;8.83;;;19.30;99.90;;;;;;5062514;28;20266;-75
2023/08/25 05:58:35;;;;;;;10.77;8.80;;;19.30;99.90;;;;;;5070194;28;20220;-74
2023/08/25 06:01:01;;;;;;;10.00;8.80;;;19.40;99.90;;;;;;5071215;28;20710;-74
2023/08/25 06:03:27;;;;;;;10.27;8.40;;;19.50;99.90;;;;;;5072007;28;20178;-74
2023/08/25 06:05:53;;;;;;;9.57;8.57;;;19.60;99.90;;;;;;5072301;28;20686;-74
2023/08/25 06:08:20;;;;;;;13.70;8.97;;;19.80;99.90;;;;;;5054150;28;20513;-74
2023/08/25 06:10:46;;;;;;;10.67;8.87;;;20.00;99.90;;;;;;5053023;28;20167;-74
2023/08/25 06:13:13;;;;;;;10.65;8.48;;;20.20;99.90;;;;;;5052875;28;20170;-74
2023/08/25 06:15:38;;;;;;;9.37;7.87;;;20.50;99.90;;;;;;5051760;28;20203;-74
2023/08/25 06:18:04;;;;;;;8.95;6.95;;;20.80;99.90;;;;;;5053071;28;20565;-74
2023/08/25 06:20:30;;;;;;;8.00;6.15;;;21.10;99.90;;;;;;5061965;28;20557;-74
2023/08/25 06:22:56;;;;;;;11.60;6.20;;;21.30;99.90;;;;;;5071110;28;20596;-74
2023/08/25 06:25:22;;;;;;;7.07;5.93;;;21.60;99.90;;;;;;5071801;28;20217;-74
2023/08/25 06:27:48;;;;;;;6.55;5.90;;;21.80;99.90;;;;;;5071870;28;20170;-74
2023/08/25 06:30:14;;;;;;;6.93;5.28;;;22.10;99.90;;;;;;5071563;28;20180;-73
2023/08/25 06:32:40;;;;;;;5.72;5.10;;;22.20;99.90;;;;;;5071395;28;20217;-74
2023/08/25 06:35:06;;;;;;;5.55;5.05;;;22.30;99.90;;;;;;5071210;28;20194;-74
2023/08/25 06:37:31;;;;;;;7.65;5.88;;;22.30;99.90;;;;;;5071602;28;20598;-74
2023/08/25 06:39:57;;;;;;;6.30;5.53;;;22.20;99.90;;;;;;5071707;28;20177;-74
2023/08/25 06:42:23;;;;;;;7.45;6.13;;;22.20;99.90;;;;;;5070925;28;20308;-73
2023/08/25 06:44:48;;;;;;;7.05;6.35;;;22.00;99.90;;;;;;5071181;28;20189;-73
2023/08/25 06:47:14;;;;;;;6.85;6.18;;;21.90;99.90;;;;;;5067554;28;20182;-73
2023/08/25 06:49:39;;;;;;;7.10;6.38;;;21.90;99.90;;;;;;5051624;28;20535;-73
2023/08/25 06:52:06;;;;;;;7.78;6.97;;;21.80;99.90;;;;;;5049842;28;20175;-73
2023/08/25 06:54:33;;;;;;;9.32;6.70;;;21.90;99.90;;;;;;5051294;28;20642;-74
2023/08/25 06:56:58;;;;;;;8.98;7.40;;;22.00;99.90;;;;;;5051256;28;20549;-74
2023/08/25 06:59:24;;;;;;;7.00;6.40;;;22.20;99.90;;;;;;5051110;28;20186;-73
2023/08/25 07:01:49;;;;;;;9.93;6.55;;;22.40;99.90;;;;;;5050909;28;20652;-74
2023/08/25 07:04:15;;;;;;;5.43;4.82;;;22.80;99.90;;;;;;5050986;28;20195;-73
2023/08/25 07:06:41;;;;;;;7.75;6.13;;;23.20;99.90;;;;;;5051260;28;20288;-73
2023/08/25 07:09:07;;;;;;;6.75;5.18;;;23.60;99.90;;;;;;5054269;28;20186;-73
2023/08/25 07:11:32;;;;;;;5.88;5.38;;;23.70;99.90;;;;;;5071012;28;20244;-73
2023/08/25 07:13:59;;;;;;;5.13;4.72;;;23.50;99.90;;;;;;5070154;28;20218;-73
2023/08/25 07:16:25;;;;;;;5.95;5.45;;;23.20;99.90;;;;;;5052251;28;20228;-73
2023/08/25 07:18:50;;;;;;;6.40;5.22;;;22.80;99.90;;;;;;5050878;28;20591;-73
2023/08/25 07:21:16;;;;;;;7.75;5.95;;;22.40;99.90;;;;;;5057044;28;20213;-73
2023/08/25 07:23:42;;;;;;;6.78;6.13;;;22.10;99.90;;;;;;5056665;28;20648;-73
2023/08/25 07:26:08;;;;;;;6.50;5.88;;;21.90;99.90;;;;;;5067361;28;20667;-73
2023/08/25 07:28:34;;;;;;;7.45;6.72;;;21.60;99.90;;;;;;5070999;28;20261;-73
2023/08/25 07:31:00;;;;;;;7.57;6.77;;;21.30;99.90;;;;;;5070906;28;20253;-73
2023/08/25 07:33:26;;;;;;;8.27;7.18;;;21.20;99.90;;;;;;5070562;28;20205;-73
2023/08/25 07:35:52;;;;;;;10.53;6.93;;;21.00;99.90;;;;;;5069161;28;20299;-73
2023/08/25 07:38:18;;;;;;;11.27;7.77;;;20.90;99.90;;;;;;5070861;28;20215;-73
2023/08/25 07:40:44;;;;;;;8.97;7.07;;;20.80;99.90;;;;;;5069837;28;20213;-73
2023/08/25 07:43:09;;;;;;;9.53;7.93;;;20.70;99.90;;;;;;5069204;28;20205;-73
2023/08/25 07:45:36;;;;;;;10.85;7.22;;;20.70;99.90;;;;;;5071773;28;20213;-73
2023/08/25 07:48:02;;;;;;;9.50;8.38;;;20.80;99.90;;;;;;5057599;28;20663;-74
2023/08/25 07:50:29;;;;;;;9.20;8.25;;;20.90;99.90;;;;;;5054781;28;20182;-74
2023/08/25 07:52:55;;;;;;;11.90;8.00;;;21.00;99.90;;;;;;5054374;28;20517;-74
2023/08/25 07:55:21;;;;;;;11.80;7.57;;;21.10;99.90;;;;;;5054510;28;20205;-74
2023/08/25 07:57:46;;;;;;;13.20;7.75;;;21.10;99.90;;;;;;5054649;28;20249;-74
2023/08/25 08:00:15;;;;;;;11.02;7.97;;;21.10;99.90;;;;;;5054474;28;20190;-74
2023/08/25 08:02:46;;;;;;;10.80;8.23;;;20.90;99.90;;;;;;5071232;28;20240;-74
2023/08/25 08:05:12;;;;;;;10.25;8.38;;;20.80;99.90;;;;;;5074175;28;20198;-75
2023/08/25 08:07:38;;;;;;;20.07;9.63;;;20.70;99.90;;;;;;5074461;28;20181;-75
2023/08/25 08:10:05;;;;;;;2.87;2.67;;;20.60;99.90;;;;;;5074294;28;20166;-76
2023/08/25 08:12:31;;;;;;;3.67;3.37;;;20.30;99.90;;;;;;5073752;28;20178;-76
2023/08/25 08:14:56;;;;;;;2.57;2.47;;;20.00;99.90;;;;;;5073381;28;20200;-76
2023/08/25 08:17:22;;;;;;;2.50;2.40;;;19.90;99.90;;;;;;5074346;28;20740;-76
2023/08/25 08:19:48;;;;;;;3.17;2.97;;;19.80;99.90;;;;;;5074215;28;20699;-76
2023/08/25 08:22:14;;;;;;;1.80;1.70;;;19.70;99.90;;;;;;5073723;28;20176;-75
2023/08/25 08:24:41;;;;;;;2.10;2.00;;;19.70;99.90;;;;;;5072771;28;20197;-76
2023/08/25 08:27:07;;;;;;;1.90;1.80;;;19.70;99.90;;;;;;5074284;28;20651;-76
2023/08/25 08:29:33;;;;;;;1.97;1.87;;;19.70;99.90;;;;;;5073657;28;20178;-78
2023/08/25 08:31:59;;;;;;;2.93;2.73;;;19.80;99.90;;;;;;5074254;28;20185;-76
2023/08/25 08:34:24;;;;;;;2.63;2.53;;;19.80;99.90;;;;;;5073848;28;20195;-76
2023/08/25 08:36:50;;;;;;;1.87;1.77;;;19.90;99.90;;;;;;5073918;28;20274;-75
2023/08/25 08:39:16;;;;;;;1.80;1.70;;;19.90;99.90;;;;;;5073791;28;20379;-75
2023/08/25 08:41:43;;;;;;;2.50;2.40;;;19.90;99.90;;;;;;5069808;28;20191;-76
2023/08/25 08:44:14;;;;;;;2.50;2.40;;;20.00;99.90;;;;;;5053665;28;20209;-76
2023/08/25 08:46:42;;;;;;;1.80;1.70;;;20.00;99.90;;;;;;5052456;28;20695;-75
2023/08/25 08:49:09;;;;;;;2.07;1.97;;;20.00;99.90;;;;;;5052178;28;20174;-76
2023/08/25 08:51:36;;;;;;;3.77;2.20;;;20.00;99.90;;;;;;5053402;28;20805;-76
2023/08/25 08:54:04;;;;;;;2.70;2.50;;;20.00;99.90;;;;;;5052986;28;20627;-75
2023/08/25 08:56:31;;;;;;;2.37;2.27;;;20.10;99.90;;;;;;5052379;28;20182;-75
2023/08/25 08:58:57;;;;;;;2.53;2.43;;;20.20;99.90;;;;;;5052384;28;20182;-75
2023/08/25 09:01:23;;;;;;;2.97;2.80;;;20.20;99.90;;;;;;5053370;28;20628;-75
2023/08/25 09:03:51;;;;;;;2.27;2.17;;;20.30;99.90;;;;;;5053331;28;20199;-75
2023/08/25 09:06:17;;;;;;;2.60;2.50;;;20.40;99.90;;;;;;5053182;28;20199;-75
2023/08/25 09:08:43;;;;;;;2.00;1.90;;;20.40;99.90;;;;;;5053403;28;20201;-76
2023/08/25 09:11:08;;;;;;;2.57;2.47;;;20.40;99.90;;;;;;5051671;28;20599;-76
2023/08/25 09:13:35;;;;;;;3.75;3.42;;;20.80;99.90;;;;;;5068094;28;20178;-75
2023/08/25 09:16:11;;;;;;;2.05;1.95;;;21.10;99.90;;;;;;5071889;28;20666;-75
2023/08/25 09:18:37;;;;;;;2.83;2.63;;;21.60;99.90;;;;;;5073639;28;20170;-75
2023/08/25 09:21:13;;;;;;;2.30;2.15;;;21.80;99.90;;;;;;5072739;28;20189;-75
2023/08/25 09:23:55;;;;;;;2.63;2.42;;;21.70;99.90;;;;;;5067292;28;20200;-75
2023/08/25 09:26:22;;;;;;;2.30;2.20;;;21.50;99.90;;;;;;5053791;28;20577;-74
2023/08/25 09:28:50;;;;;;;2.75;2.53;;;21.30;99.90;;;;;;5053951;28;20170;-74
2023/08/25 09:31:27;;;;;;;2.78;2.45;;;21.40;99.90;;;;;;5053673;28;20253;-74
2023/08/25 09:33:59;;;;;;;2.25;2.10;;;21.50;99.90;;;;;;5053164;28;20190;-75
2023/08/25 09:36:25;;;;;;;2.33;2.22;;;21.50;99.90;;;;;;5051056;28;20205;-75
2023/08/25 09:38:52;;;;;;;2.10;2.00;;;21.50;99.90;;;;;;5052643;28;20179;-75
2023/08/25 09:41:25;;;;;;;6.10;3.83;;;21.50;99.90;;;;;;5052032;28;20224;-75
2023/08/25 09:43:59;;;;;;;1.90;1.80;;;21.40;99.90;;;;;;5051322;28;20311;-75
2023/08/25 09:46:32;;;;;;;2.00;1.90;;;21.30;99.90;;;;;;5051545;28;20202;-74
2023/08/25 09:49:02;;;;;;;2.65;2.47;;;21.10;99.90;;;;;;5066137;28;20182;-75
2023/08/25 09:51:39;;;;;;;2.42;2.28;;;21.10;99.90;;;;;;5068930;28;20197;-74
2023/08/25 09:54:12;;;;;;;1.92;1.83;;;21.00;99.90;;;;;;5052511;28;20237;-75
2023/08/25 09:56:40;;;;;;;2.10;2.00;;;21.00;99.90;;;;;;5071684;28;20185;-74
2023/08/25 09:59:08;;;;;;;2.37;2.27;;;21.00;99.90;;;;;;5066055;28;20671;-75
2023/08/25 10:01:35;;;;;;;2.30;2.20;;;20.90;99.90;;;;;;5052233;28;20183;-74
2023/08/25 10:04:03;;;;;;;2.97;2.77;;;20.80;99.90;;;;;;5052116;28;20217;-74
2023/08/25 10:06:33;;;;;;;2.33;2.23;;;20.80;99.90;;;;;;5051992;28;20211;-74
2023/08/25 10:08:59;;;;;;;2.78;2.67;;;20.80;99.90;;;;;;5051672;28;20220;-74
2023/08/25 10:11:43;;;;;;;2.10;2.00;;;20.90;99.90;;;;;;5050466;28;20267;-74
2023/08/25 10:14:10;;;;;;;2.37;2.27;;;20.80;99.90;;;;;;5051008;28;20247;-74
2023/08/25 10:16:50;;;;;;;3.67;3.17;;;20.90;99.90;;;;;;5051939;28;20182;-74
2023/08/25 10:19:25;;;;;;;2.63;2.53;;;20.80;99.90;;;;;;5052032;28;20190;-75
2023/08/25 10:21:53;;;;;;;7.83;7.43;;;20.80;99.90;;;;;;5051825;28;20213;-75
2023/08/25 10:24:20;;;;;;;2.17;2.07;;;20.70;99.90;;;;;;5050881;28;20649;-74
2023/08/25 10:26:47;;;;;;;3.50;3.20;;;20.70;99.90;;;;;;5051975;28;20285;-75
2023/08/25 10:29:17;;;;;;;2.50;2.40;;;20.60;99.90;;;;;;5051947;28;20175;-76
2023/08/25 10:31:51;;;;;;;2.50;2.40;;;20.50;99.90;;;;;;5056637;28;20270;-76
2023/08/25 10:34:41;;;;;;;2.60;2.50;;;20.40;99.90;;;;;;5055500;28;20193;-75
2023/08/25 10:37:12;;;;;;;4.50;3.53;;;20.30;99.90;;;;;;5051547;28;20181;-75
2023/08/25 10:39:52;;;;;;;3.30;2.97;;;20.30;99.90;;;;;;5050371;28;20521;-74
2023/08/25 10:42:38;;;;;;;2.30;2.20;;;20.20;99.90;;;;;;5051461;28;20262;-75
2023/08/25 10:45:10;;;;;;;2.37;2.27;;;20.10;99.90;;;;;;5051238;28;20225;-75
2023/08/25 10:47:46;;;;;;;2.53;2.43;;;20.00;99.90;;;;;;5059696;28;20256;-76
2023/08/25 10:50:13;;;;;;;3.03;2.50;;;19.90;99.90;;;;;;5071565;28;20248;-76
2023/08/25 10:52:46;;;;;;;2.37;2.27;;;19.90;99.90;;;;;;5071088;28;20224;-76
2023/08/25 10:55:32;;;;;;;2.63;2.43;;;20.00;99.90;;;;;;5071468;28;20378;-76
2023/08/25 10:58:07;;;;;;;2.13;2.03;;;20.10;99.90;;;;;;5061026;28;20200;-76
2023/08/25 11:00:43;;;;;;;2.30;2.20;;;20.30;99.90;;;;;;5065348;28;20702;-76
2023/08/25 11:03:09;;;;;;;4.10;2.40;;;20.50;99.90;;;;;;5065880;28;20172;-75
2023/08/25 11:05:34;;;;;;;2.93;2.70;;;20.60;99.90;;;;;;5051079;28;20222;-75
2023/08/25 11:08:04;;;;;;;2.70;2.60;;;20.60;99.90;;;;;;5051262;28;20584;-75
2023/08/25 11:10:35;;;;;;;2.30;2.20;;;20.50;99.90;;;;;;5051071;28;20194;-74
2023/08/25 11:13:08;;;;;;;2.43;2.33;;;20.30;99.90;;;;;;5050900;28;20171;-74
2023/08/25 11:15:38;;;;;;;2.30;2.20;;;20.20;99.90;;;;;;5051455;28;20237;-74
2023/08/25 11:18:04;;;;;;;3.23;1.90;;;20.30;99.90;;;;;;5051155;28;20229;-75
2023/08/25 11:20:30;;;;;;;2.10;2.00;;;20.20;99.90;;;;;;5050491;28;20193;-74
2023/08/25 11:22:58;;;;;;;2.40;2.30;;;20.20;99.90;;;;;;5049615;28;20180;-74
2023/08/25 11:25:28;;;;;;;2.80;2.70;;;20.30;99.90;;;;;;5050695;28;20612;-74
2023/08/25 11:27:54;;;;;;;2.10;2.00;;;20.30;99.90;;;;;;5062456;28;20239;-74
2023/08/25 11:30:21;;;;;;;2.17;2.07;;;20.40;99.90;;;;;;5070695;28;20560;-74
2023/08/25 11:32:48;;;;;;;2.20;2.10;;;20.50;99.90;;;;;;5070688;28;20170;-74
2023/08/25 11:35:14;;;;;;;2.00;1.90;;;20.60;99.90;;;;;;5069226;28;20552;-74
2023/08/25 11:37:40;;;;;;;2.47;2.37;;;20.60;99.90;;;;;;5069646;28;20217;-74
2023/08/25 11:40:12;;;;;;;2.00;1.90;;;20.60;99.90;;;;;;5071447;28;20182;-74
2023/08/25 11:42:42;;;;;;;2.10;2.00;;;20.60;99.90;;;;;;5059434;28;20193;-74
2023/08/25 11:45:08;;;;;;;2.10;2.00;;;20.60;99.90;;;;;;5050613;28;20210;-74
2023/08/25 11:47:34;;;;;;;2.13;2.03;;;20.80;99.90;;;;;;5049410;28;20249;-74
2023/08/25 11:50:04;;;;;;;2.17;2.07;;;20.90;99.90;;;;;;5060121;28;20177;-74
2023/08/25 11:52:32;;;;;;;1.90;1.80;;;21.10;99.90;;;;;;5070327;28;20181;-74
2023/08/25 11:54:58;;;;;;;2.08;1.98;;;21.30;99.90;;;;;;5062168;28;20656;-75
2023/08/25 11:57:35;;;;;;;2.28;2.17;;;21.50;99.90;;;;;;5049163;28;20179;-74
2023/08/25 12:00:03;;;;;;;2.20;2.08;;;21.60;99.90;;;;;;5050765;28;20574;-74
2023/08/25 12:02:29;;;;;;;2.20;2.10;;;21.60;99.90;;;;;;5063317;28;20620;-74
2023/08/25 12:04:56;;;;;;;1.98;1.88;;;21.80;99.90;;;;;;5070346;28;20236;-76
2023/08/25 12:07:23;;;;;;;2.72;2.63;;;22.00;99.90;;;;;;5069097;28;20247;-75
2023/08/25 12:10:03;;;;;;;2.40;2.30;;;22.00;99.90;;;;;;5069843;28;20178;-74
2023/08/25 12:12:37;;;;;;;2.00;1.90;;;22.20;99.90;;;;;;5070240;28;20261;-74
2023/08/25 12:15:06;;;;;;;2.22;2.13;;;22.00;99.90;;;;;;5070428;28;20243;-73
2023/08/25 12:17:34;;;;;;;2.90;2.70;;;22.20;99.90;;;;;;5054170;28;20205;-74
2023/08/25 12:20:09;;;;;;;2.65;2.47;;;22.30;99.90;;;;;;5050489;28;20194;-74
2023/08/25 12:22:35;;;;;;;2.25;2.15;;;22.40;99.90;;;;;;5060080;28;20190;-74
2023/08/25 12:25:00;;;;;;;2.35;2.25;;;22.70;99.90;;;;;;5070202;28;20205;-74
2023/08/25 12:27:26;;;;;;;2.42;2.33;;;22.90;99.90;;;;;;5070217;28;20219;-74
2023/08/25 12:29:52;;;;;;;2.63;2.42;;;23.00;99.90;;;;;;5070588;28;20170;-74
2023/08/25 12:32:17;;;;;;;2.05;1.95;;;23.10;99.90;;;;;;5071952;28;20224;-74
2023/08/25 12:34:43;;;;;;;1.90;1.80;;;23.00;99.90;;;;;;5073958;28;20233;-73
2023/08/25 12:37:08;;;;;;;2.10;2.00;;;22.90;99.90;;;;;;5064384;28;20171;-74
2023/08/25 12:39:34;;;;;;;2.03;1.92;;;22.80;99.90;;;;;;5053690;28;20202;-73
2023/08/25 12:41:59;;;;;;;2.85;2.75;;;22.80;99.90;;;;;;5064898;28;20193;-73